createdAt,value
2019-01-20T00:00:19.651Z,33.40
2019-01-20T00:02:52.307Z,33.17
2019-01-20T00:05:23.750Z,32.97
2019-01-20T00:07:55.111Z,33.27
2019-01-20T00:10:26.457Z,34.23
2019-01-20T00:12:57.822Z,34.07
2019-01-20T00:15:29.217Z,34.07
2019-01-20T00:18:00.559Z,36.40
2019-01-20T00:20:31.686Z,35.97
2019-01-20T00:23:04.103Z,35.17
2019-01-20T00:25:35.332Z,42.30
2019-01-20T00:28:06.746Z,41.45
2019-01-20T00:30:38.084Z,41.00
2019-01-20T00:33:09.522Z,35.03
2019-01-20T00:35:40.810Z,38.83
2019-01-20T00:38:12.063Z,40.23
2019-01-20T00:40:43.344Z,37.67
2019-01-20T00:43:14.591Z,34.20
2019-01-20T00:45:45.964Z,34.27
2019-01-20T00:48:17.348Z,36.20
2019-01-20T00:50:48.747Z,36.30
2019-01-20T00:53:31.906Z,38.10
2019-01-20T00:56:03.211Z,37.20
2019-01-20T00:58:46.092Z,33.97
2019-01-20T01:01:17.423Z,37.42
2019-01-20T01:03:48.667Z,35.20
2019-01-20T01:06:21.009Z,32.13
2019-01-20T01:08:53.480Z,35.58
2019-01-20T01:11:31.382Z,35.67
2019-01-20T01:13:57.601Z,37.63
2019-01-20T01:16:28.932Z,37.50
2019-01-20T01:19:00.165Z,37.33
2019-01-20T01:21:31.663Z,34.97
2019-01-20T01:24:03.002Z,36.83
2019-01-20T01:26:34.354Z,37.78
2019-01-20T01:29:05.833Z,35.77
2019-01-20T01:31:38.694Z,32.27
2019-01-20T01:34:09.831Z,36.05
2019-01-20T01:36:41.282Z,36.37
2019-01-20T01:39:12.494Z,35.60
2019-01-20T01:41:43.814Z,37.03
2019-01-20T01:44:15.062Z,36.57
2019-01-20T01:46:46.255Z,31.73
2019-01-20T01:49:17.505Z,35.40
2019-01-20T01:51:49.817Z,37.90
2019-01-20T01:54:20.976Z,33.40
2019-01-20T01:56:52.074Z,31.53
2019-01-20T01:59:41.987Z,35.67
2019-01-20T02:02:13.411Z,37.77
2019-01-20T02:04:44.510Z,37.20
2019-01-20T02:07:16.374Z,36.03
2019-01-20T02:09:47.620Z,39.87
2019-01-20T02:12:18.812Z,41.73
2019-01-20T02:14:50.396Z,40.23
2019-01-20T02:17:21.733Z,34.75
2019-01-20T02:19:53.002Z,34.48
2019-01-20T02:22:24.300Z,35.10
2019-01-20T02:24:55.698Z,35.78
2019-01-20T02:27:28.005Z,33.75
2019-01-20T02:29:59.349Z,38.25
2019-01-20T02:32:30.744Z,35.48
2019-01-20T02:35:01.962Z,30.48
2019-01-20T02:37:33.210Z,30.48
2019-01-20T02:40:05.044Z,30.57
2019-01-20T02:42:36.312Z,30.47
2019-01-20T02:45:08.596Z,31.40
2019-01-20T02:47:40.158Z,29.57
2019-01-20T02:50:13.382Z,29.55
2019-01-20T02:52:44.974Z,30.20
2019-01-20T02:55:16.406Z,28.90
2019-01-20T02:57:47.763Z,31.62
2019-01-20T03:00:21.536Z,32.17
2019-01-20T03:02:53.059Z,29.75
2019-01-20T03:05:25.646Z,28.07
2019-01-20T03:07:56.885Z,28.83
2019-01-20T03:10:28.466Z,29.85
2019-01-20T03:12:59.733Z,27.70
2019-01-20T03:15:31.042Z,28.45
2019-01-20T03:18:02.594Z,26.90
2019-01-20T03:20:33.838Z,25.88
2019-01-20T03:23:05.157Z,27.67
2019-01-20T03:25:36.538Z,27.35
2019-01-20T03:28:07.914Z,26.65
2019-01-20T03:30:39.171Z,27.52
2019-01-20T03:33:10.656Z,26.30
2019-01-20T03:35:41.875Z,26.25
2019-01-20T03:38:13.229Z,27.05
2019-01-20T03:40:44.474Z,27.95
2019-01-20T03:43:16.206Z,27.37
2019-01-20T03:45:47.482Z,28.35
2019-01-20T03:48:18.912Z,27.13
2019-01-20T03:50:50.474Z,27.52
2019-01-20T03:53:21.957Z,28.80
2019-01-20T03:55:53.182Z,29.72
2019-01-20T03:58:24.579Z,28.47
2019-01-20T04:00:55.824Z,27.80
2019-01-20T04:03:27.517Z,28.85
2019-01-20T04:05:58.847Z,29.10
2019-01-20T04:08:30.237Z,29.12
2019-01-20T04:11:01.347Z,29.70
2019-01-20T04:13:32.717Z,29.00
2019-01-20T04:16:03.958Z,26.62
2019-01-20T04:18:35.291Z,26.57
2019-01-20T04:21:06.493Z,28.25
2019-01-20T04:23:38.872Z,28.83
2019-01-20T04:26:09.944Z,29.05
2019-01-20T04:28:41.772Z,27.50
2019-01-20T04:31:13.242Z,28.25
2019-01-20T04:33:44.542Z,27.48
2019-01-20T04:36:16.091Z,26.73
2019-01-20T04:38:48.649Z,28.02
2019-01-20T04:41:20.133Z,28.02
2019-01-20T04:43:52.478Z,28.65
2019-01-20T04:46:23.754Z,27.98
2019-01-20T04:48:55.105Z,29.45
2019-01-20T04:51:26.229Z,30.37
2019-01-20T04:54:09.437Z,29.67
2019-01-20T04:56:40.491Z,29.40
2019-01-20T04:59:11.841Z,28.87
2019-01-20T05:01:43.127Z,29.42
2019-01-20T05:04:14.517Z,33.67
2019-01-20T05:06:45.744Z,59.73
2019-01-20T05:09:17.096Z,32.55
2019-01-20T05:11:48.503Z,31.00
2019-01-20T05:14:19.853Z,28.75
2019-01-20T05:16:52.442Z,29.00
2019-01-20T05:19:34.838Z,29.82
2019-01-20T05:22:06.169Z,27.05
2019-01-20T05:24:37.550Z,30.68
2019-01-20T05:27:10.988Z,33.23
2019-01-20T05:29:42.912Z,30.50
2019-01-20T05:32:14.401Z,29.05
2019-01-20T05:34:45.632Z,27.15
2019-01-20T05:37:17.107Z,31.37
2019-01-20T05:39:48.388Z,26.40
2019-01-20T05:42:20.362Z,26.70
2019-01-20T05:44:51.573Z,27.52
2019-01-20T05:47:22.902Z,29.00
2019-01-20T05:49:54.125Z,27.00
2019-01-20T05:52:26.351Z,26.90
2019-01-20T05:54:57.655Z,26.87
2019-01-20T05:57:29.056Z,26.12
2019-01-20T06:00:00.419Z,26.45
2019-01-20T06:02:31.904Z,26.00
2019-01-20T06:05:03.291Z,24.80
2019-01-20T06:07:34.689Z,25.55
2019-01-20T06:10:07.515Z,25.72
2019-01-20T06:12:38.866Z,25.30
2019-01-20T06:15:13.344Z,24.75
2019-01-20T06:17:44.607Z,26.60
2019-01-20T06:20:17.192Z,28.07
2019-01-20T06:22:48.654Z,27.07
2019-01-20T06:25:20.041Z,28.77
2019-01-20T06:27:51.383Z,28.53
2019-01-20T06:30:33.524Z,28.07
2019-01-20T06:33:06.062Z,28.57
2019-01-20T06:35:38.067Z,26.35
2019-01-20T06:38:28.296Z,27.55
2019-01-20T06:41:00.546Z,26.23
2019-01-20T06:43:32.578Z,27.13
2019-01-20T06:46:03.900Z,25.93
2019-01-20T06:48:35.224Z,26.70
2019-01-20T06:51:06.585Z,26.07
2019-01-20T06:53:37.894Z,25.50
2019-01-20T06:56:09.336Z,24.83
2019-01-20T06:58:40.651Z,25.37
2019-01-20T07:01:12.435Z,26.07
2019-01-20T07:03:45.469Z,26.07
2019-01-20T07:06:16.847Z,24.73
2019-01-20T07:08:49.073Z,26.47
2019-01-20T07:11:20.374Z,24.37
2019-01-20T07:13:52.634Z,25.80
2019-01-20T07:16:23.842Z,25.77
2019-01-20T07:18:54.956Z,26.60
2019-01-20T07:21:26.270Z,25.77
2019-01-20T07:23:57.784Z,26.23
2019-01-20T07:26:29.025Z,26.47
2019-01-20T07:29:00.261Z,25.10
2019-01-20T07:31:31.593Z,25.27
2019-01-20T07:34:02.857Z,26.80
2019-01-20T07:36:34.497Z,24.50
2019-01-20T07:39:08.018Z,24.30
2019-01-20T07:41:39.853Z,24.30
2019-01-20T07:44:11.591Z,23.80
2019-01-20T07:46:43.326Z,22.43
2019-01-20T07:49:26.774Z,23.73
2019-01-20T07:51:58.131Z,24.73
2019-01-20T07:54:29.537Z,23.33
2019-01-20T07:57:02.190Z,23.30
2019-01-20T07:59:33.868Z,24.97
2019-01-20T08:02:05.095Z,23.43
2019-01-20T08:04:37.766Z,24.53
2019-01-20T08:07:09.123Z,23.87
2019-01-20T08:09:40.442Z,24.10
2019-01-20T08:12:11.935Z,64.97
2019-01-20T08:14:43.479Z,24.20
2019-01-20T08:17:14.896Z,23.13
2019-01-20T08:19:46.220Z,24.10
2019-01-20T08:22:18.423Z,24.67
2019-01-20T08:24:49.836Z,23.37
2019-01-20T08:27:21.183Z,24.90
2019-01-20T08:29:52.488Z,24.20
2019-01-20T08:32:23.835Z,24.30
2019-01-20T08:34:56.570Z,25.80
2019-01-20T08:37:29.085Z,25.10
2019-01-20T08:40:00.335Z,24.03
2019-01-20T08:42:31.654Z,27.30
2019-01-20T08:45:02.892Z,26.40
2019-01-20T08:47:38.262Z,24.50
2019-01-20T08:50:13.102Z,23.73
2019-01-20T08:52:44.324Z,25.03
2019-01-20T08:55:15.751Z,25.70
2019-01-20T08:57:48.080Z,23.87
2019-01-20T09:00:20.676Z,24.50
2019-01-20T09:02:53.222Z,25.30
2019-01-20T09:05:25.737Z,24.30
2019-01-20T09:07:56.960Z,23.97
2019-01-20T09:10:29.015Z,24.20
2019-01-20T09:13:04.366Z,25.17
2019-01-20T09:15:36.062Z,23.53
2019-01-20T09:18:08.899Z,22.10
2019-01-20T09:20:41.548Z,23.30
2019-01-20T09:23:13.870Z,23.77
2019-01-20T09:25:45.353Z,23.43
2019-01-20T09:28:16.571Z,21.93
2019-01-20T09:30:47.980Z,22.73
2019-01-20T09:33:24.579Z,22.93
2019-01-20T09:35:52.662Z,23.00
2019-01-20T09:38:24.078Z,24.17
2019-01-20T09:40:55.389Z,23.93
2019-01-20T09:43:27.523Z,23.43
2019-01-20T09:45:59.416Z,23.33
2019-01-20T09:48:30.802Z,23.10
2019-01-20T09:51:02.283Z,23.47
2019-01-20T09:53:33.727Z,25.00
2019-01-20T09:56:05.604Z,24.60
2019-01-20T09:58:38.100Z,24.87
2019-01-20T10:01:09.503Z,26.20
2019-01-20T10:03:41.196Z,24.80
2019-01-20T10:06:12.739Z,25.23
2019-01-20T10:08:43.939Z,24.20
2019-01-20T10:11:15.055Z,23.60
2019-01-20T10:13:46.582Z,24.73
2019-01-20T10:16:17.944Z,25.33
2019-01-20T10:18:49.138Z,24.27
2019-01-20T10:21:20.907Z,28.07
2019-01-20T10:23:52.121Z,24.47
2019-01-20T10:26:23.628Z,29.73
2019-01-20T10:28:55.301Z,31.03
2019-01-20T10:31:28.323Z,44.93
2019-01-20T10:34:00.144Z,26.47
2019-01-20T10:36:31.504Z,22.80
2019-01-20T10:39:03.259Z,23.87
2019-01-20T10:41:34.593Z,24.97
2019-01-20T10:44:05.847Z,24.97
2019-01-20T10:46:37.253Z,23.77
2019-01-20T10:49:08.657Z,25.03
2019-01-20T10:51:40.011Z,24.10
2019-01-20T10:54:12.426Z,24.60
2019-01-20T10:56:43.864Z,24.30
2019-01-20T10:59:16.412Z,25.30
2019-01-20T11:01:47.740Z,24.73
2019-01-20T11:04:19.503Z,24.07
2019-01-20T11:07:02.284Z,24.50
2019-01-20T11:09:34.140Z,25.53
2019-01-20T11:12:05.597Z,25.90
2019-01-20T11:14:36.854Z,26.77
2019-01-20T11:17:08.540Z,27.23
2019-01-20T11:19:40.092Z,26.23
2019-01-20T11:22:11.531Z,26.17
2019-01-20T11:24:42.850Z,25.60
2019-01-20T11:27:14.258Z,26.40
2019-01-20T11:29:45.686Z,25.77
2019-01-20T11:32:17.603Z,26.27
2019-01-20T11:34:50.361Z,26.53
2019-01-20T11:37:21.592Z,27.43
2019-01-20T11:39:52.945Z,27.00
2019-01-20T11:42:25.439Z,26.37
2019-01-20T11:44:57.052Z,27.70
2019-01-20T11:47:28.316Z,28.37
2019-01-20T11:49:59.806Z,27.10
2019-01-20T11:52:31.068Z,24.60
2019-01-20T11:55:02.418Z,27.60
2019-01-20T11:57:33.639Z,28.97
2019-01-20T12:00:06.178Z,25.33
2019-01-20T12:02:37.485Z,23.10
2019-01-20T12:05:10.510Z,23.60
2019-01-20T12:07:42.018Z,23.07
2019-01-20T12:10:14.162Z,23.47
2019-01-20T12:12:48.620Z,23.50
2019-01-20T12:15:19.889Z,22.93
2019-01-20T12:17:51.214Z,24.40
2019-01-20T12:20:22.494Z,23.33
2019-01-20T12:22:53.989Z,22.97
2019-01-20T12:25:25.355Z,24.10
2019-01-20T12:27:56.548Z,23.63
2019-01-20T12:30:29.636Z,23.07
2019-01-20T12:33:00.881Z,22.70
2019-01-20T12:35:32.230Z,21.20
2019-01-20T12:38:04.273Z,22.63
2019-01-20T12:40:41.115Z,22.10
2019-01-20T12:43:12.463Z,23.10
2019-01-20T12:45:43.769Z,21.17
2019-01-20T12:48:15.233Z,24.70
2019-01-20T12:50:46.656Z,20.63
2019-01-20T12:53:18.783Z,20.57
2019-01-20T12:55:50.126Z,20.67
2019-01-20T12:58:21.580Z,19.93
2019-01-20T13:00:52.922Z,15.53
2019-01-20T13:03:24.180Z,18.20
2019-01-20T13:05:55.673Z,19.60
2019-01-20T13:08:28.274Z,18.43
2019-01-20T13:11:01.237Z,18.83
2019-01-20T13:13:33.849Z,21.20
2019-01-20T13:16:05.602Z,19.13
2019-01-20T13:18:37.019Z,19.20
2019-01-20T13:21:08.453Z,20.27
2019-01-20T13:23:40.912Z,16.97
2019-01-20T13:26:31.101Z,16.97
2019-01-20T13:29:02.603Z,18.83
2019-01-20T13:31:34.964Z,19.90
2019-01-20T13:34:06.452Z,19.10
2019-01-20T13:36:37.971Z,17.87
2019-01-20T13:39:12.734Z,19.13
2019-01-20T13:41:44.594Z,18.97
2019-01-20T13:44:16.913Z,19.70
2019-01-20T13:46:48.875Z,21.20
2019-01-20T13:49:23.112Z,22.83
2019-01-20T13:51:55.040Z,21.20
2019-01-20T13:54:27.057Z,21.70
2019-01-20T13:56:58.272Z,22.93
2019-01-20T13:59:29.681Z,19.50
2019-01-20T14:02:01.454Z,20.87
2019-01-20T14:04:32.887Z,23.57
2019-01-20T14:07:04.266Z,25.87
2019-01-20T14:09:36.143Z,26.63
2019-01-20T14:12:07.544Z,23.93
2019-01-20T14:14:38.811Z,35.90
2019-01-20T14:17:10.106Z,23.33
2019-01-20T14:19:41.228Z,22.27
2019-01-20T14:22:13.505Z,22.70
2019-01-20T14:24:44.944Z,23.40
2019-01-20T14:27:16.132Z,25.50
2019-01-20T14:29:47.578Z,23.43
2019-01-20T14:32:19.233Z,23.53
2019-01-20T14:34:50.617Z,25.93
2019-01-20T14:37:22.103Z,27.07
2019-01-20T14:39:53.436Z,31.20
2019-01-20T14:42:24.799Z,29.30
2019-01-20T14:45:01.039Z,31.07
2019-01-20T14:47:30.158Z,31.63
2019-01-20T14:50:01.319Z,28.73
2019-01-20T14:52:33.879Z,33.60
2019-01-20T14:55:05.981Z,40.50
2019-01-20T14:57:37.495Z,42.03
2019-01-20T15:00:14.885Z,43.40
2019-01-20T15:02:46.296Z,44.97
2019-01-20T15:05:17.751Z,44.43
2019-01-20T15:07:49.610Z,37.23
2019-01-20T15:10:21.765Z,34.23
2019-01-20T15:12:54.308Z,28.83
2019-01-20T15:15:29.767Z,28.00
2019-01-20T15:18:01.045Z,26.80
2019-01-20T15:20:32.383Z,27.83
2019-01-20T15:23:03.948Z,28.17
2019-01-20T15:25:35.592Z,28.43
2019-01-20T15:28:08.127Z,30.67
2019-01-20T15:30:39.528Z,32.30
2019-01-20T15:33:10.749Z,31.07
2019-01-20T15:35:41.926Z,28.97
2019-01-20T15:38:13.290Z,32.63
2019-01-20T15:40:44.850Z,42.43
2019-01-20T15:43:17.066Z,34.20
2019-01-20T15:45:48.395Z,40.27
2019-01-20T15:48:20.085Z,33.87
2019-01-20T15:50:52.015Z,41.37
2019-01-20T15:53:23.342Z,35.97
2019-01-20T15:55:54.821Z,30.10
2019-01-20T15:58:27.140Z,32.53
2019-01-20T16:00:58.446Z,32.47
2019-01-20T16:03:29.754Z,33.57
2019-01-20T16:06:01.111Z,31.27
2019-01-20T16:08:32.170Z,32.50
2019-01-20T16:11:03.667Z,31.27
2019-01-20T16:13:35.890Z,31.80
2019-01-20T16:16:07.813Z,31.73
2019-01-20T16:18:39.203Z,30.67
2019-01-20T16:21:11.687Z,31.83
2019-01-20T16:23:43.175Z,32.80
2019-01-20T16:26:14.915Z,29.90
2019-01-20T16:28:46.949Z,30.20
2019-01-20T16:31:18.922Z,32.20
2019-01-20T16:33:50.529Z,29.93
2019-01-20T16:36:21.841Z,30.90
2019-01-20T16:38:53.252Z,31.90
2019-01-20T16:41:25.727Z,30.67
2019-01-20T16:43:56.970Z,33.50
2019-01-20T16:46:28.399Z,31.43
2019-01-20T16:49:00.486Z,30.23
2019-01-20T16:51:31.986Z,29.97
2019-01-20T16:54:04.131Z,31.80
2019-01-20T16:56:35.330Z,31.03
2019-01-20T16:59:07.319Z,31.03
2019-01-20T17:01:38.706Z,30.93
2019-01-20T17:04:09.928Z,33.00
2019-01-20T17:06:41.137Z,38.63
2019-01-20T17:09:12.559Z,36.20
2019-01-20T17:11:43.922Z,35.80
2019-01-20T17:14:15.168Z,36.50
2019-01-20T17:16:46.490Z,38.10
2019-01-20T17:19:18.227Z,33.60
2019-01-20T17:21:50.165Z,30.63
2019-01-20T17:24:21.876Z,28.00
2019-01-20T17:26:53.222Z,30.27
2019-01-20T17:29:24.339Z,29.50
2019-01-20T17:31:55.664Z,28.13
2019-01-20T17:34:26.969Z,27.67
2019-01-20T17:36:58.269Z,28.47
2019-01-20T17:39:29.664Z,30.70
2019-01-20T17:42:01.024Z,28.47
2019-01-20T17:44:45.327Z,26.90
2019-01-20T17:47:17.663Z,30.57
2019-01-20T17:49:48.972Z,42.97
2019-01-20T17:52:20.292Z,29.60
2019-01-20T17:54:52.605Z,25.87
2019-01-20T17:57:24.156Z,24.87
2019-01-20T17:59:55.464Z,24.87
2019-01-20T18:02:27.094Z,24.43
2019-01-20T18:04:58.625Z,25.50
2019-01-20T18:07:41.990Z,24.50
2019-01-20T18:10:13.585Z,25.70
2019-01-20T18:12:44.885Z,27.20
2019-01-20T18:15:17.498Z,27.77
2019-01-20T18:17:48.809Z,28.00
2019-01-20T18:20:22.632Z,27.13
2019-01-20T18:22:54.748Z,26.77
2019-01-20T18:25:26.507Z,26.70
2019-01-20T18:27:58.136Z,26.43
2019-01-20T18:30:29.978Z,27.53
2019-01-20T18:33:02.106Z,26.80
2019-01-20T18:35:34.729Z,27.00
2019-01-20T18:38:07.673Z,28.00
2019-01-20T18:40:40.301Z,27.47
2019-01-20T18:43:11.766Z,27.42
2019-01-20T18:45:43.194Z,29.30
2019-01-20T18:48:14.592Z,29.00
2019-01-20T18:50:46.398Z,28.65
2019-01-20T18:53:17.769Z,41.45
2019-01-20T18:55:49.097Z,34.55
2019-01-20T18:58:20.425Z,32.67
2019-01-20T19:00:53.369Z,31.40
2019-01-20T19:03:24.965Z,32.00
2019-01-20T19:05:56.415Z,31.83
2019-01-20T19:08:28.137Z,29.60
2019-01-20T19:10:59.569Z,30.60
2019-01-20T19:13:33.362Z,29.33
2019-01-20T19:16:09.073Z,28.93
2019-01-20T19:18:38.810Z,27.93
2019-01-20T19:21:10.158Z,27.93
2019-01-20T19:23:53.442Z,28.80
2019-01-20T19:26:25.587Z,27.50
2019-01-20T19:29:02.938Z,30.00
2019-01-20T19:31:29.912Z,28.10
2019-01-20T19:34:01.423Z,28.43
2019-01-20T19:36:33.097Z,30.77
2019-01-20T19:39:06.084Z,28.67
2019-01-20T19:41:38.483Z,32.87
2019-01-20T19:44:09.776Z,42.10
2019-01-20T19:46:42.443Z,45.97
2019-01-20T19:49:13.631Z,47.00
2019-01-20T19:51:45.118Z,50.07
2019-01-20T19:54:16.632Z,45.97
2019-01-20T19:56:49.666Z,39.57
2019-01-20T19:59:21.107Z,77.83
2019-01-20T20:01:52.567Z,82.30
2019-01-20T20:04:23.819Z,87.30
2019-01-20T20:06:55.932Z,58.17
2019-01-20T20:09:27.334Z,46.83
2019-01-20T20:11:58.747Z,37.90
2019-01-20T20:14:29.983Z,37.10
2019-01-20T20:17:01.648Z,39.90
2019-01-20T20:19:32.843Z,39.27
2019-01-20T20:22:04.190Z,34.87
2019-01-20T20:24:35.333Z,33.43
2019-01-20T20:27:06.541Z,32.57
2019-01-20T20:29:37.789Z,31.07
2019-01-20T20:32:09.195Z,30.20
2019-01-20T20:35:00.032Z,39.23
2019-01-20T20:37:31.721Z,38.70
2019-01-20T20:40:03.392Z,36.07
2019-01-20T20:42:34.853Z,33.87
2019-01-20T20:45:08.937Z,31.70
2019-01-20T20:47:40.274Z,32.03
2019-01-20T20:50:12.828Z,28.00
2019-01-20T20:52:46.073Z,49.10
2019-01-20T20:55:17.343Z,31.27
2019-01-20T20:57:48.767Z,29.17
2019-01-20T21:00:39.024Z,36.80
2019-01-20T21:03:19.551Z,34.13
2019-01-20T21:05:51.780Z,33.27
2019-01-20T21:08:23.066Z,31.33
2019-01-20T21:10:56.395Z,32.10
2019-01-20T21:13:27.767Z,31.23
2019-01-20T21:15:58.991Z,30.97
2019-01-20T21:18:30.404Z,30.93
2019-01-20T21:21:01.650Z,32.33
2019-01-20T21:23:32.897Z,28.97
2019-01-20T21:26:05.134Z,28.30
2019-01-20T21:28:38.005Z,27.60
2019-01-20T21:31:10.020Z,30.90
2019-01-20T21:33:41.421Z,34.23
2019-01-20T21:36:12.747Z,29.30
2019-01-20T21:38:45.096Z,29.23
2019-01-20T21:41:16.524Z,28.53
2019-01-20T21:43:47.819Z,29.37
2019-01-20T21:46:19.292Z,29.97
2019-01-20T21:48:50.728Z,28.60
2019-01-20T21:51:23.037Z,28.87
2019-01-20T21:53:54.512Z,27.58
2019-01-20T21:56:25.897Z,31.95
2019-01-20T21:58:57.261Z,28.77
2019-01-20T22:01:29.667Z,29.53
2019-01-20T22:04:01.072Z,32.33
2019-01-20T22:06:32.308Z,38.60
2019-01-20T22:09:03.953Z,34.13
2019-01-20T22:11:36.856Z,32.55
2019-01-20T22:14:08.521Z,33.27
2019-01-20T22:16:39.876Z,31.53
2019-01-20T22:19:11.176Z,29.53
2019-01-20T22:21:42.804Z,29.07
2019-01-20T22:24:15.297Z,27.65
2019-01-20T22:26:46.680Z,30.23
2019-01-20T22:29:17.898Z,29.33
2019-01-20T22:31:49.262Z,26.63
2019-01-20T22:34:20.577Z,26.42
2019-01-20T22:36:52.015Z,26.20
2019-01-20T22:39:23.342Z,27.27
2019-01-20T22:41:54.735Z,26.50
2019-01-20T22:44:26.081Z,24.98
2019-01-20T22:47:00.260Z,27.60
2019-01-20T22:49:30.403Z,31.77
2019-01-20T22:52:01.774Z,35.75
2019-01-20T22:54:33.157Z,34.50
2019-01-20T22:57:04.786Z,29.75
2019-01-20T22:59:47.513Z,29.37
2019-01-20T23:02:18.746Z,28.52
2019-01-20T23:04:49.981Z,28.02
2019-01-20T23:07:32.595Z,27.35
2019-01-20T23:10:15.306Z,31.20
2019-01-20T23:12:46.731Z,33.23
2019-01-20T23:15:18.111Z,32.03
2019-01-20T23:17:50.371Z,32.58
2019-01-20T23:20:21.793Z,33.98
2019-01-20T23:22:52.951Z,29.05
2019-01-20T23:25:24.298Z,27.55
2019-01-20T23:27:55.520Z,29.95
2019-01-20T23:30:26.779Z,31.33
2019-01-20T23:32:58.146Z,33.53
2019-01-20T23:35:29.365Z,33.35
2019-01-20T23:38:00.619Z,33.88
2019-01-20T23:40:31.867Z,32.10
2019-01-20T23:43:03.079Z,32.88
2019-01-20T23:45:34.438Z,32.20
2019-01-20T23:48:06.119Z,32.38
2019-01-20T23:50:37.608Z,33.18
2019-01-20T23:53:08.760Z,33.78
2019-01-20T23:55:40.033Z,34.78
2019-01-20T23:58:11.396Z,33.90
